createdAt,value
2023-02-16T00:02:01.441Z,19.90
2023-02-16T00:04:27.978Z,20.00
2023-02-16T00:06:54.463Z,20.00
2023-02-16T00:09:20.965Z,20.00
2023-02-16T00:11:47.464Z,20.00
2023-02-16T00:14:13.954Z,20.00
2023-02-16T00:16:40.446Z,20.00
2023-02-16T00:19:06.935Z,20.00
2023-02-16T00:21:33.399Z,19.90
2023-02-16T00:23:59.881Z,19.90
2023-02-16T00:26:26.383Z,19.90
2023-02-16T00:28:52.877Z,20.00
2023-02-16T00:31:19.432Z,19.90
2023-02-16T00:33:45.985Z,20.00
2023-02-16T00:36:12.468Z,20.00
2023-02-16T00:38:38.967Z,20.00
2023-02-16T00:41:05.634Z,20.00
2023-02-16T00:43:32.338Z,20.00
2023-02-16T00:45:58.891Z,19.90
2023-02-16T00:48:25.378Z,19.90
2023-02-16T00:50:51.847Z,20.00
2023-02-16T00:53:18.387Z,20.00
2023-02-16T00:55:44.860Z,20.00
2023-02-16T00:58:11.335Z,20.00
2023-02-16T01:00:37.797Z,20.00
2023-02-16T01:03:04.296Z,20.00
2023-02-16T01:05:30.800Z,20.00
2023-02-16T01:07:57.269Z,19.90
2023-02-16T01:10:23.768Z,20.00
2023-02-16T01:12:50.272Z,20.00
2023-02-16T01:15:16.735Z,20.00
2023-02-16T01:17:43.194Z,20.00
2023-02-16T01:20:09.707Z,20.00
2023-02-16T01:22:36.248Z,20.00
2023-02-16T01:25:02.716Z,20.00
2023-02-16T01:27:29.208Z,20.00
2023-02-16T01:29:55.709Z,19.90
2023-02-16T01:32:22.331Z,20.00
2023-02-16T01:34:48.919Z,20.10
2023-02-16T01:37:15.498Z,19.40
2023-02-16T01:39:42.024Z,20.00
2023-02-16T01:42:08.563Z,20.00
2023-02-16T01:44:35.027Z,20.00
2023-02-16T01:47:01.489Z,20.00
2023-02-16T01:49:28.031Z,20.00
2023-02-16T01:51:54.543Z,20.00
2023-02-16T01:54:21.016Z,19.90
2023-02-16T01:56:47.473Z,19.90
2023-02-16T01:59:13.950Z,19.90
2023-02-16T02:01:40.437Z,20.00
2023-02-16T02:04:06.929Z,19.90
2023-02-16T02:06:33.409Z,19.90
2023-02-16T02:08:59.859Z,19.90
2023-02-16T02:11:26.337Z,19.80
2023-02-16T02:13:52.796Z,19.80
2023-02-16T02:16:19.411Z,19.80
2023-02-16T02:18:45.885Z,19.70
2023-02-16T02:21:12.357Z,19.80
2023-02-16T02:23:38.842Z,19.70
2023-02-16T02:26:05.328Z,19.90
2023-02-16T02:28:31.798Z,19.90
2023-02-16T02:30:58.369Z,19.80
2023-02-16T02:33:24.907Z,19.80
2023-02-16T02:35:51.395Z,19.90
2023-02-16T02:38:17.915Z,19.90
2023-02-16T02:40:44.414Z,19.90
2023-02-16T02:43:10.892Z,19.90
2023-02-16T02:45:37.336Z,19.90
2023-02-16T02:48:03.823Z,19.90
2023-02-16T02:50:30.294Z,19.90
2023-02-16T02:52:56.758Z,19.90
2023-02-16T02:55:23.274Z,19.90
2023-02-16T02:57:49.781Z,19.90
2023-02-16T03:00:16.244Z,19.90
2023-02-16T03:02:42.676Z,19.90
2023-02-16T03:05:09.111Z,19.90
2023-02-16T03:07:35.590Z,20.00
2023-02-16T03:10:02.055Z,20.00
2023-02-16T03:12:28.543Z,20.00
2023-02-16T03:14:55.000Z,19.90
2023-02-16T03:17:21.517Z,20.00
2023-02-16T03:19:48.037Z,19.90
2023-02-16T03:22:14.522Z,19.90
2023-02-16T03:24:40.976Z,20.30
2023-02-16T03:27:09.269Z,19.90
2023-02-16T03:29:35.992Z,20.00
2023-02-16T03:32:02.551Z,19.90
2023-02-16T03:34:29.160Z,20.00
2023-02-16T03:36:55.609Z,19.90
2023-02-16T03:39:22.121Z,19.90
2023-02-16T03:41:48.632Z,20.00
2023-02-16T03:44:15.102Z,20.00
2023-02-16T03:46:41.564Z,20.00
2023-02-16T03:49:08.029Z,20.00
2023-02-16T03:51:34.466Z,20.00
2023-02-16T03:54:00.965Z,20.00
2023-02-16T03:56:27.482Z,20.00
2023-02-16T03:58:53.980Z,20.00
2023-02-16T04:01:20.479Z,20.00
2023-02-16T04:03:47.004Z,20.00
2023-02-16T04:06:13.580Z,20.00
2023-02-16T04:08:40.112Z,20.00
2023-02-16T04:11:06.660Z,20.00
2023-02-16T04:13:33.185Z,20.00
2023-02-16T04:15:59.682Z,20.00
2023-02-16T04:18:26.168Z,20.00
2023-02-16T04:20:52.681Z,20.00
2023-02-16T04:23:19.220Z,19.90
2023-02-16T04:25:45.727Z,20.00
2023-02-16T04:28:12.192Z,19.90
2023-02-16T04:30:38.812Z,20.00
2023-02-16T04:33:05.369Z,19.90
2023-02-16T04:35:31.872Z,20.00
2023-02-16T04:37:58.361Z,20.00
2023-02-16T04:40:24.858Z,20.00
2023-02-16T04:42:51.382Z,20.00
2023-02-16T04:45:17.923Z,20.00
2023-02-16T04:47:44.429Z,20.00
2023-02-16T04:50:10.940Z,20.00
2023-02-16T04:52:37.537Z,19.90
2023-02-16T04:55:04.024Z,19.90
2023-02-16T04:57:30.552Z,19.90
2023-02-16T04:59:57.023Z,20.10
2023-02-16T05:02:23.544Z,19.90
2023-02-16T05:04:50.131Z,19.00
2023-02-16T05:07:16.666Z,20.00
2023-02-16T05:09:43.144Z,20.00
2023-02-16T05:12:09.632Z,20.00
2023-02-16T05:14:36.123Z,20.00
2023-02-16T05:17:02.625Z,20.00
2023-02-16T05:19:29.084Z,20.00
2023-02-16T05:21:55.582Z,20.00
2023-02-16T05:24:22.038Z,20.00
2023-02-16T05:26:48.488Z,20.00
2023-02-16T05:29:14.967Z,20.00
2023-02-16T05:31:41.605Z,20.00
2023-02-16T05:34:08.152Z,19.90
2023-02-16T05:36:34.617Z,19.90
2023-02-16T05:39:01.110Z,19.90
2023-02-16T05:41:27.591Z,19.90
2023-02-16T05:43:54.112Z,19.80
2023-02-16T05:46:20.638Z,19.80
2023-02-16T05:48:47.114Z,19.80
2023-02-16T05:51:13.623Z,19.80
2023-02-16T05:53:40.124Z,19.80
2023-02-16T05:56:07.500Z,19.80
2023-02-16T05:58:34.069Z,19.80
2023-02-16T06:01:00.543Z,19.80
2023-02-16T06:03:27.068Z,19.80
2023-02-16T06:05:53.560Z,19.80
2023-02-16T06:08:20.009Z,19.80
2023-02-16T06:10:46.495Z,18.80
2023-02-16T06:13:13.009Z,19.80
2023-02-16T06:15:39.555Z,19.80
2023-02-16T06:18:06.057Z,19.80
2023-02-16T06:20:32.545Z,19.70
2023-02-16T06:22:59.081Z,19.70
2023-02-16T06:25:25.531Z,19.80
2023-02-16T06:27:51.980Z,19.70
2023-02-16T06:30:18.508Z,19.80
2023-02-16T06:32:44.983Z,19.90
2023-02-16T06:35:11.482Z,19.90
2023-02-16T06:37:37.952Z,19.90
2023-02-16T06:40:04.408Z,19.90
2023-02-16T06:42:30.901Z,19.90
2023-02-16T06:44:57.358Z,20.10
2023-02-16T06:47:23.849Z,19.80
2023-02-16T06:49:50.354Z,19.80
2023-02-16T06:52:16.996Z,19.80
2023-02-16T06:54:43.474Z,20.00
2023-02-16T06:57:09.978Z,19.80
2023-02-16T06:59:36.465Z,19.80
2023-02-16T07:02:02.956Z,19.80
2023-02-16T07:04:29.443Z,19.90
2023-02-16T07:06:55.937Z,19.80
2023-02-16T07:09:22.455Z,19.90
2023-02-16T07:11:49.053Z,19.80
2023-02-16T07:14:15.563Z,19.90
2023-02-16T07:16:42.095Z,20.00
2023-02-16T07:19:08.651Z,20.00
2023-02-16T07:21:35.110Z,20.10
2023-02-16T07:24:01.625Z,20.20
2023-02-16T07:26:28.162Z,20.30
2023-02-16T07:28:54.633Z,20.30
2023-02-16T07:31:21.192Z,20.40
2023-02-16T07:33:47.720Z,20.40
2023-02-16T07:36:14.244Z,20.50
2023-02-16T07:38:40.736Z,20.50
2023-02-16T07:41:09.548Z,20.50
2023-02-16T07:43:36.422Z,20.60
2023-02-16T07:46:02.968Z,20.60
2023-02-16T07:48:29.458Z,20.60
2023-02-16T07:50:55.935Z,20.60
2023-02-16T07:53:22.428Z,20.70
2023-02-16T07:55:48.869Z,20.70
2023-02-16T07:58:15.393Z,20.70
2023-02-16T08:00:41.904Z,20.70
2023-02-16T08:03:08.528Z,20.70
2023-02-16T08:05:35.135Z,20.70
2023-02-16T08:08:01.585Z,20.70
2023-02-16T08:10:28.039Z,20.70
2023-02-16T08:12:54.602Z,20.70
2023-02-16T08:15:21.173Z,20.70
2023-02-16T08:17:47.666Z,20.70
2023-02-16T08:20:14.338Z,20.80
2023-02-16T08:22:40.817Z,20.80
2023-02-16T08:25:07.332Z,20.80
2023-02-16T08:27:33.854Z,20.80
2023-02-16T08:30:00.329Z,20.80
2023-02-16T08:32:26.840Z,20.70
2023-02-16T08:34:53.400Z,20.50
2023-02-16T08:37:19.895Z,20.70
2023-02-16T08:39:46.375Z,20.70
2023-02-16T08:42:12.893Z,20.70
2023-02-16T08:44:39.379Z,20.80
2023-02-16T08:47:05.891Z,20.70
2023-02-16T08:49:32.385Z,20.70
2023-02-16T08:51:58.871Z,20.80
2023-02-16T08:54:25.383Z,20.80
2023-02-16T08:56:51.891Z,20.80
2023-02-16T08:59:18.395Z,20.70
2023-02-16T09:01:44.859Z,20.80
2023-02-16T09:04:11.369Z,20.80
2023-02-16T09:06:37.833Z,20.80
2023-02-16T09:09:04.467Z,20.80
2023-02-16T09:11:30.922Z,20.80
2023-02-16T09:13:57.455Z,20.80
2023-02-16T09:16:23.984Z,20.80
2023-02-16T09:18:50.485Z,20.80
2023-02-16T09:21:16.990Z,20.80
2023-02-16T09:23:44.760Z,20.80
2023-02-16T09:26:11.517Z,20.80
2023-02-16T09:28:37.986Z,20.80
2023-02-16T09:31:04.592Z,20.90
2023-02-16T09:33:31.177Z,20.90
2023-02-16T09:35:57.689Z,20.90
2023-02-16T09:38:24.202Z,20.90
2023-02-16T09:40:50.697Z,20.80
2023-02-16T09:43:17.185Z,20.90
2023-02-16T09:45:43.686Z,20.80
2023-02-16T09:48:10.195Z,20.80
2023-02-16T09:50:53.330Z,20.80
2023-02-16T09:53:20.200Z,20.80
2023-02-16T09:55:46.711Z,20.80
2023-02-16T09:58:13.159Z,20.80
2023-02-16T10:00:39.715Z,20.80
2023-02-16T10:03:06.210Z,20.80
2023-02-16T10:05:32.653Z,20.80
2023-02-16T10:07:59.258Z,20.80
2023-02-16T10:10:25.764Z,20.80
2023-02-16T10:12:52.213Z,20.80
2023-02-16T10:15:18.707Z,20.70
2023-02-16T10:17:45.225Z,20.70
2023-02-16T10:20:11.730Z,20.70
2023-02-16T10:22:38.235Z,20.70
2023-02-16T10:25:04.790Z,20.70
2023-02-16T10:27:31.242Z,20.70
2023-02-16T10:29:57.785Z,20.60
2023-02-16T10:32:24.273Z,20.70
2023-02-16T10:34:50.760Z,20.70
2023-02-16T10:37:17.269Z,20.60
2023-02-16T10:39:43.738Z,20.60
2023-02-16T10:42:10.221Z,20.60
2023-02-16T10:44:36.682Z,20.60
2023-02-16T10:47:03.142Z,20.60
2023-02-16T10:49:29.627Z,20.50
2023-02-16T10:51:56.106Z,20.50
2023-02-16T10:54:22.596Z,21.20
2023-02-16T10:56:49.057Z,20.50
2023-02-16T10:59:15.510Z,20.50
2023-02-16T11:01:41.997Z,20.50
2023-02-16T11:04:08.536Z,20.50
2023-02-16T11:06:36.601Z,20.50
2023-02-16T11:09:03.256Z,20.50
2023-02-16T11:11:29.699Z,20.40
2023-02-16T11:13:56.188Z,20.40
2023-02-16T11:16:22.729Z,20.40
2023-02-16T11:18:49.270Z,20.40
2023-02-16T11:21:15.760Z,20.40
2023-02-16T11:23:42.264Z,20.40
2023-02-16T11:26:08.737Z,20.40
2023-02-16T11:28:35.227Z,20.30
2023-02-16T11:31:01.801Z,20.30
2023-02-16T11:33:28.370Z,20.40
2023-02-16T11:35:54.875Z,20.30
2023-02-16T11:38:21.366Z,20.40
2023-02-16T11:40:47.860Z,20.40
2023-02-16T11:43:14.361Z,20.40
2023-02-16T11:45:40.842Z,20.50
2023-02-16T11:48:07.296Z,20.50
2023-02-16T11:50:33.768Z,20.40
2023-02-16T11:53:00.242Z,20.40
2023-02-16T11:55:26.783Z,20.40
2023-02-16T11:57:53.271Z,20.30
2023-02-16T12:00:19.779Z,20.30
2023-02-16T12:02:46.310Z,20.30
2023-02-16T12:05:12.824Z,20.30
2023-02-16T12:07:39.298Z,20.20
2023-02-16T12:10:05.747Z,20.20
2023-02-16T12:12:32.253Z,20.20
2023-02-16T12:14:58.760Z,20.10
2023-02-16T12:17:25.228Z,20.10
2023-02-16T12:19:51.732Z,20.10
2023-02-16T12:22:18.210Z,20.10
2023-02-16T12:24:44.674Z,20.00
2023-02-16T12:27:11.152Z,20.00
2023-02-16T12:29:37.690Z,20.00
2023-02-16T12:32:04.262Z,20.00
2023-02-16T12:34:30.910Z,20.00
2023-02-16T12:36:57.365Z,20.00
2023-02-16T12:39:23.844Z,19.90
2023-02-16T12:41:50.277Z,19.90
2023-02-16T12:44:16.796Z,19.90
2023-02-16T12:46:43.272Z,19.90
2023-02-16T12:49:09.784Z,19.80
2023-02-16T12:51:36.285Z,19.90
2023-02-16T12:54:02.742Z,19.90
2023-02-16T12:56:29.240Z,19.80
2023-02-16T12:58:55.698Z,19.90
2023-02-16T13:01:22.224Z,19.80
2023-02-16T13:03:48.796Z,19.80
2023-02-16T13:06:15.340Z,19.80
2023-02-16T13:08:41.823Z,19.80
2023-02-16T13:11:08.447Z,19.80
2023-02-16T13:13:35.203Z,19.80
2023-02-16T13:16:01.718Z,19.80
2023-02-16T13:18:28.223Z,19.70
2023-02-16T13:20:54.690Z,19.70
2023-02-16T13:23:21.328Z,19.70
2023-02-16T13:25:47.995Z,19.80
2023-02-16T13:28:14.632Z,19.70
2023-02-16T13:30:41.220Z,19.70
2023-02-16T13:33:07.789Z,19.80
2023-02-16T13:35:34.230Z,19.70
2023-02-16T13:38:00.769Z,19.70
2023-02-16T13:40:28.469Z,19.70
2023-02-16T13:42:54.950Z,19.70
2023-02-16T13:45:21.426Z,19.70
2023-02-16T13:47:47.912Z,19.70
2023-02-16T13:50:14.443Z,19.70
2023-02-16T13:52:40.910Z,19.70
2023-02-16T13:55:07.440Z,19.60
2023-02-16T13:57:33.891Z,19.60
2023-02-16T14:00:00.467Z,19.70
2023-02-16T14:02:26.947Z,19.70
2023-02-16T14:04:53.500Z,19.20
2023-02-16T14:07:20.040Z,19.60
2023-02-16T14:09:46.513Z,19.60
2023-02-16T14:12:13.030Z,19.60
2023-02-16T14:14:39.480Z,19.60
2023-02-16T14:17:05.961Z,19.60
2023-02-16T14:19:32.430Z,19.60
2023-02-16T14:21:58.882Z,19.60
2023-02-16T14:24:25.353Z,19.60
2023-02-16T14:26:51.848Z,19.60
2023-02-16T14:29:18.295Z,19.40
2023-02-16T14:31:44.894Z,19.60
2023-02-16T14:34:11.453Z,19.60
2023-02-16T14:36:37.915Z,19.60
2023-02-16T14:39:04.407Z,19.50
2023-02-16T14:41:30.908Z,19.50
2023-02-16T14:43:57.379Z,19.50
2023-02-16T14:46:23.893Z,19.50
2023-02-16T14:48:50.416Z,19.50
2023-02-16T14:51:16.940Z,19.50
2023-02-16T14:53:43.400Z,19.50
2023-02-16T14:56:09.867Z,19.50
2023-02-16T14:58:36.338Z,19.40
2023-02-16T15:01:02.873Z,19.50
2023-02-16T15:03:29.371Z,19.50
2023-02-16T15:05:55.876Z,19.60
2023-02-16T15:08:22.383Z,19.50
2023-02-16T15:10:48.927Z,19.50
2023-02-16T15:13:15.926Z,19.50
2023-02-16T15:15:42.505Z,19.50
2023-02-16T15:18:09.024Z,19.50
2023-02-16T15:20:35.538Z,19.50
2023-02-16T15:23:02.052Z,19.50
2023-02-16T15:25:28.555Z,19.50
2023-02-16T15:27:55.093Z,19.50
2023-02-16T15:30:21.681Z,19.50
2023-02-16T15:32:48.309Z,19.50
2023-02-16T15:35:14.852Z,19.50
2023-02-16T15:37:41.373Z,19.50
2023-02-16T15:40:24.398Z,19.50
2023-02-16T15:42:51.678Z,19.50
2023-02-16T15:45:18.177Z,19.60
2023-02-16T15:47:46.130Z,19.60
2023-02-16T15:50:12.849Z,19.60
2023-02-16T15:52:39.357Z,19.60
2023-02-16T15:55:05.874Z,19.60
2023-02-16T15:57:32.353Z,19.60
2023-02-16T15:59:58.938Z,19.70
2023-02-16T16:02:25.508Z,19.70
2023-02-16T16:04:53.779Z,20.00
2023-02-16T16:07:21.110Z,19.70
2023-02-16T16:09:47.620Z,19.70
2023-02-16T16:12:14.154Z,19.60
2023-02-16T16:14:40.651Z,19.60
2023-02-16T16:17:07.155Z,19.70
2023-02-16T16:19:33.619Z,19.60
2023-02-16T16:22:00.124Z,19.60
2023-02-16T16:24:26.693Z,19.60
2023-02-16T16:26:53.190Z,19.50
2023-02-16T16:29:19.678Z,19.50
2023-02-16T16:31:46.214Z,19.50
2023-02-16T16:34:12.755Z,19.60
2023-02-16T16:36:39.246Z,19.50
2023-02-16T16:39:05.731Z,19.60
2023-02-16T16:41:32.198Z,19.60
2023-02-16T16:43:58.732Z,19.60
2023-02-16T16:46:25.248Z,19.60
2023-02-16T16:48:51.748Z,19.60
2023-02-16T16:51:18.271Z,19.60
2023-02-16T16:53:44.781Z,19.60
2023-02-16T16:56:11.288Z,19.60
2023-02-16T16:58:37.784Z,19.60
2023-02-16T17:01:04.491Z,19.70
2023-02-16T17:03:31.475Z,19.70
2023-02-16T17:05:58.052Z,19.70
2023-02-16T17:08:24.559Z,19.70
2023-02-16T17:10:51.081Z,19.70
2023-02-16T17:13:17.564Z,19.70
2023-02-16T17:15:44.032Z,19.70
2023-02-16T17:18:10.556Z,19.70
2023-02-16T17:20:37.090Z,19.70
2023-02-16T17:23:03.608Z,19.70
2023-02-16T17:25:30.175Z,19.80
2023-02-16T17:27:56.698Z,19.80
2023-02-16T17:30:23.270Z,19.90
2023-02-16T17:32:49.796Z,19.80
2023-02-16T17:35:16.398Z,19.80
2023-02-16T17:37:42.935Z,19.90
2023-02-16T17:40:09.450Z,19.90
2023-02-16T17:42:35.970Z,19.90
2023-02-16T17:45:02.440Z,19.90
2023-02-16T17:47:29.001Z,19.90
2023-02-16T17:49:55.532Z,19.90
2023-02-16T17:52:22.018Z,19.90
2023-02-16T17:54:48.559Z,19.60
2023-02-16T17:57:15.075Z,19.90
2023-02-16T17:59:41.585Z,19.90
2023-02-16T18:02:08.076Z,19.90
2023-02-16T18:04:34.618Z,19.90
2023-02-16T18:07:01.156Z,19.90
2023-02-16T18:09:27.663Z,19.90
2023-02-16T18:11:54.273Z,19.90
2023-02-16T18:14:20.790Z,19.90
2023-02-16T18:16:47.407Z,19.90
2023-02-16T18:19:13.982Z,19.90
2023-02-16T18:21:40.445Z,19.90
2023-02-16T18:24:06.940Z,19.90
2023-02-16T18:26:33.417Z,19.90
2023-02-16T18:28:59.910Z,19.90
2023-02-16T18:31:26.495Z,19.90
2023-02-16T18:33:53.066Z,19.90
2023-02-16T18:36:19.536Z,19.90
2023-02-16T18:38:46.065Z,19.90
2023-02-16T18:41:12.559Z,19.80
2023-02-16T18:43:39.072Z,19.80
2023-02-16T18:46:05.851Z,19.80
2023-02-16T18:48:32.507Z,19.80
2023-02-16T18:50:59.010Z,19.80
2023-02-16T18:53:25.536Z,19.80
2023-02-16T18:55:54.584Z,19.80
2023-02-16T18:58:21.059Z,19.80
2023-02-16T19:00:47.524Z,19.80
2023-02-16T19:03:14.077Z,19.80
2023-02-16T19:05:40.656Z,19.80
2023-02-16T19:08:07.206Z,19.80
2023-02-16T19:10:33.715Z,19.80
2023-02-16T19:13:01.326Z,19.70
2023-02-16T19:15:28.723Z,19.80
2023-02-16T19:17:55.236Z,19.70
2023-02-16T19:20:21.721Z,19.70
2023-02-16T19:22:48.261Z,19.80
2023-02-16T19:25:14.745Z,19.70
2023-02-16T19:27:41.247Z,19.70
2023-02-16T19:30:07.740Z,19.80
2023-02-16T19:32:34.280Z,19.80
2023-02-16T19:35:00.804Z,19.50
2023-02-16T19:37:27.326Z,19.80
2023-02-16T19:39:53.949Z,19.80
2023-02-16T19:42:20.414Z,19.80
2023-02-16T19:44:46.915Z,19.50
2023-02-16T19:47:13.395Z,19.80
2023-02-16T19:49:39.906Z,19.90
2023-02-16T19:52:06.428Z,19.80
2023-02-16T19:54:32.945Z,19.80
2023-02-16T19:56:59.418Z,19.90
2023-02-16T19:59:26.010Z,19.80
2023-02-16T20:01:52.511Z,19.80
2023-02-16T20:04:19.076Z,19.90
2023-02-16T20:06:45.601Z,19.90
2023-02-16T20:09:12.107Z,19.80
2023-02-16T20:11:38.623Z,19.90
2023-02-16T20:14:05.106Z,19.90
2023-02-16T20:16:31.648Z,19.90
2023-02-16T20:18:58.201Z,19.90
2023-02-16T20:21:24.737Z,19.90
2023-02-16T20:23:51.282Z,19.90
2023-02-16T20:26:17.785Z,19.90
2023-02-16T20:28:44.318Z,19.90
2023-02-16T20:31:10.961Z,19.90
2023-02-16T20:33:37.549Z,19.90
2023-02-16T20:36:04.248Z,19.90
2023-02-16T20:38:31.041Z,19.90
2023-02-16T20:40:57.773Z,19.90
2023-02-16T20:43:24.276Z,19.90
2023-02-16T20:45:50.772Z,19.90
2023-02-16T20:48:17.271Z,19.90
2023-02-16T20:50:43.755Z,19.90
2023-02-16T20:53:10.243Z,19.90
2023-02-16T20:55:36.782Z,19.90
2023-02-16T20:58:03.264Z,19.90
2023-02-16T21:00:29.789Z,19.90
2023-02-16T21:02:56.345Z,19.90
2023-02-16T21:05:22.842Z,19.90
2023-02-16T21:07:50.072Z,19.90
2023-02-16T21:10:16.659Z,19.90
2023-02-16T21:12:43.135Z,19.90
2023-02-16T21:15:09.610Z,19.90
2023-02-16T21:17:36.169Z,19.90
2023-02-16T21:20:02.706Z,19.90
2023-02-16T21:22:29.224Z,19.90
2023-02-16T21:24:55.691Z,19.50
2023-02-16T21:27:22.159Z,19.90
2023-02-16T21:29:48.669Z,19.90
2023-02-16T21:32:15.200Z,19.90
2023-02-16T21:34:41.713Z,19.90
2023-02-16T21:37:08.240Z,19.90
2023-02-16T21:39:34.766Z,19.90
2023-02-16T21:42:01.272Z,19.90
2023-02-16T21:44:27.754Z,19.90
2023-02-16T21:46:54.260Z,19.90
2023-02-16T21:49:20.740Z,19.90
2023-02-16T21:51:47.213Z,19.90
2023-02-16T21:54:14.445Z,19.80
2023-02-16T21:56:41.138Z,19.80
2023-02-16T21:59:07.648Z,19.90
2023-02-16T22:01:34.131Z,19.90
2023-02-16T22:04:00.676Z,19.90
2023-02-16T22:06:27.275Z,19.80
2023-02-16T22:08:53.750Z,19.90
2023-02-16T22:11:20.237Z,19.80
2023-02-16T22:13:46.697Z,19.70
2023-02-16T22:16:13.298Z,19.80
2023-02-16T22:18:39.790Z,19.80
2023-02-16T22:21:06.318Z,19.80
2023-02-16T22:23:32.819Z,19.80
2023-02-16T22:25:59.333Z,19.80
2023-02-16T22:28:25.851Z,19.80
2023-02-16T22:30:52.362Z,19.80
2023-02-16T22:33:18.887Z,19.80
2023-02-16T22:35:45.382Z,19.80
2023-02-16T22:38:11.843Z,19.80
2023-02-16T22:40:38.315Z,19.90
2023-02-16T22:43:04.819Z,19.90
2023-02-16T22:45:31.365Z,19.90
2023-02-16T22:47:57.914Z,19.90
2023-02-16T22:50:24.417Z,19.90
2023-02-16T22:52:50.907Z,19.90
2023-02-16T22:55:17.403Z,19.90
2023-02-16T22:57:43.859Z,19.90
2023-02-16T23:00:10.359Z,19.90
2023-02-16T23:02:36.821Z,19.90
2023-02-16T23:05:03.295Z,19.90
2023-02-16T23:07:29.764Z,19.90
2023-02-16T23:09:56.268Z,19.90
2023-02-16T23:12:22.754Z,20.00
2023-02-16T23:14:49.234Z,20.40
2023-02-16T23:17:15.750Z,19.90
2023-02-16T23:19:42.218Z,19.90
2023-02-16T23:22:08.703Z,19.90
2023-02-16T23:24:35.208Z,19.90
2023-02-16T23:27:01.776Z,19.90
2023-02-16T23:29:28.255Z,19.90
2023-02-16T23:31:54.767Z,19.90
2023-02-16T23:34:21.329Z,19.90
2023-02-16T23:36:47.830Z,19.90
2023-02-16T23:39:14.339Z,19.90
2023-02-16T23:41:40.883Z,19.90
2023-02-16T23:44:07.351Z,19.90
2023-02-16T23:46:33.881Z,19.90
2023-02-16T23:49:00.379Z,19.90
2023-02-16T23:51:26.892Z,19.90
2023-02-16T23:53:53.400Z,19.90
2023-02-16T23:56:19.879Z,19.90
2023-02-16T23:58:46.363Z,19.90
